sensor_id;sensor_type;location;lat;lon;timestamp;temperature;humidity
42949;DHT22;28587;46.794;23.594;2022-11-15T00:00:10;22.10;60.20
42949;DHT22;28587;46.794;23.594;2022-11-15T00:05:29;22.10;60.20
42949;DHT22;28587;46.794;23.594;2022-11-15T00:10:57;22.10;60.20
42949;DHT22;28587;46.794;23.594;2022-11-15T00:16:16;22.10;60.00
42949;DHT22;28587;46.794;23.594;2022-11-15T00:21:37;22.10;60.20
42949;DHT22;28587;46.794;23.594;2022-11-15T00:26:57;22.10;60.00
42949;DHT22;28587;46.794;23.594;2022-11-15T00:32:16;22.10;60.20
42949;DHT22;28587;46.794;23.594;2022-11-15T00:37:36;22.10;60.10
42949;DHT22;28587;46.794;23.594;2022-11-15T00:42:55;22.10;60.40
42949;DHT22;28587;46.794;23.594;2022-11-15T00:48:15;22.10;60.30
42949;DHT22;28587;46.794;23.594;2022-11-15T00:53:35;22.00;60.30
42949;DHT22;28587;46.794;23.594;2022-11-15T00:58:54;22.00;60.10
42949;DHT22;28587;46.794;23.594;2022-11-15T01:04:14;22.00;60.00
42949;DHT22;28587;46.794;23.594;2022-11-15T01:09:34;22.10;60.20
42949;DHT22;28587;46.794;23.594;2022-11-15T01:14:53;22.00;60.10
42949;DHT22;28587;46.794;23.594;2022-11-15T01:20:13;22.00;60.10
42949;DHT22;28587;46.794;23.594;2022-11-15T01:25:32;22.00;60.00
42949;DHT22;28587;46.794;23.594;2022-11-15T01:30:52;22.00;60.20
42949;DHT22;28587;46.794;23.594;2022-11-15T01:36:17;22.00;59.90
42949;DHT22;28587;46.794;23.594;2022-11-15T01:41:37;22.00;60.20
42949;DHT22;28587;46.794;23.594;2022-11-15T01:46:58;22.00;60.10
42949;DHT22;28587;46.794;23.594;2022-11-15T01:52:20;22.00;60.30
42949;DHT22;28587;46.794;23.594;2022-11-15T01:57:43;22.00;59.90
42949;DHT22;28587;46.794;23.594;2022-11-15T02:03:03;22.00;59.90
42949;DHT22;28587;46.794;23.594;2022-11-15T02:08:23;22.00;60.00
42949;DHT22;28587;46.794;23.594;2022-11-15T02:13:43;22.00;60.10
42949;DHT22;28587;46.794;23.594;2022-11-15T02:36:00;22.00;60.00
42949;DHT22;28587;46.794;23.594;2022-11-15T02:41:30;22.00;60.00
42949;DHT22;28587;46.794;23.594;2022-11-15T02:46:58;21.90;60.00
42949;DHT22;28587;46.794;23.594;2022-11-15T02:52:33;21.90;60.00
42949;DHT22;28587;46.794;23.594;2022-11-15T02:58:01;22.00;60.00
42949;DHT22;28587;46.794;23.594;2022-11-15T03:09:11;21.90;59.90
42949;DHT22;28587;46.794;23.594;2022-11-15T03:20:11;22.00;60.00
42949;DHT22;28587;46.794;23.594;2022-11-15T03:25:34;21.90;59.80
42949;DHT22;28587;46.794;23.594;2022-11-15T03:30:56;21.90;59.90
42949;DHT22;28587;46.794;23.594;2022-11-15T03:36:17;21.90;60.00
42949;DHT22;28587;46.794;23.594;2022-11-15T03:47:13;21.90;60.10
42949;DHT22;28587;46.794;23.594;2022-11-15T03:52:35;21.90;59.90
42949;DHT22;28587;46.794;23.594;2022-11-15T03:57:58;21.90;59.90
42949;DHT22;28587;46.794;23.594;2022-11-15T04:03:18;21.90;60.00
42949;DHT22;28587;46.794;23.594;2022-11-15T04:08:38;21.90;59.80
42949;DHT22;28587;46.794;23.594;2022-11-15T04:13:57;21.90;60.50
42949;DHT22;28587;46.794;23.594;2022-11-15T04:19:17;21.90;60.00
42949;DHT22;28587;46.794;23.594;2022-11-15T04:24:55;21.90;59.90
42949;DHT22;28587;46.794;23.594;2022-11-15T04:30:15;21.90;59.80
42949;DHT22;28587;46.794;23.594;2022-11-15T04:35:35;21.90;59.80
42949;DHT22;28587;46.794;23.594;2022-11-15T04:40:54;21.90;59.90
42949;DHT22;28587;46.794;23.594;2022-11-15T04:46:14;21.90;59.80
42949;DHT22;28587;46.794;23.594;2022-11-15T04:51:33;21.90;59.80
42949;DHT22;28587;46.794;23.594;2022-11-15T04:56:53;21.90;59.70
42949;DHT22;28587;46.794;23.594;2022-11-15T05:02:13;21.90;59.60
42949;DHT22;28587;46.794;23.594;2022-11-15T05:07:32;21.90;59.70
42949;DHT22;28587;46.794;23.594;2022-11-15T05:12:52;21.90;59.60
42949;DHT22;28587;46.794;23.594;2022-11-15T05:18:11;21.90;59.50
42949;DHT22;28587;46.794;23.594;2022-11-15T05:23:30;21.90;59.90
42949;DHT22;28587;46.794;23.594;2022-11-15T05:28:57;21.90;60.40
42949;DHT22;28587;46.794;23.594;2022-11-15T05:34:17;22.10;60.90
42949;DHT22;28587;46.794;23.594;2022-11-15T05:39:37;22.30;60.60
42949;DHT22;28587;46.794;23.594;2022-11-15T05:44:58;22.50;60.30
42949;DHT22;28587;46.794;23.594;2022-11-15T05:50:18;22.50;60.00
42949;DHT22;28587;46.794;23.594;2022-11-15T05:55:39;22.60;60.00
42949;DHT22;28587;46.794;23.594;2022-11-15T06:00:59;22.50;60.00
42949;DHT22;28587;46.794;23.594;2022-11-15T06:06:19;22.50;60.20
42949;DHT22;28587;46.794;23.594;2022-11-15T06:11:39;22.50;60.10
42949;DHT22;28587;46.794;23.594;2022-11-15T06:16:58;22.40;59.90
42949;DHT22;28587;46.794;23.594;2022-11-15T06:22:18;22.40;59.90
42949;DHT22;28587;46.794;23.594;2022-11-15T06:27:38;22.30;59.90
42949;DHT22;28587;46.794;23.594;2022-11-15T06:33:05;22.30;59.90
42949;DHT22;28587;46.794;23.594;2022-11-15T06:38:24;22.20;59.80
42949;DHT22;28587;46.794;23.594;2022-11-15T06:43:44;22.20;60.00
42949;DHT22;28587;46.794;23.594;2022-11-15T06:49:03;22.20;59.90
42949;DHT22;28587;46.794;23.594;2022-11-15T06:54:23;22.20;59.80
42949;DHT22;28587;46.794;23.594;2022-11-15T06:59:42;22.20;59.60
42949;DHT22;28587;46.794;23.594;2022-11-15T07:05:02;22.20;59.70
42949;DHT22;28587;46.794;23.594;2022-11-15T07:10:22;22.20;59.60
42949;DHT22;28587;46.794;23.594;2022-11-15T07:15:43;22.20;59.60
42949;DHT22;28587;46.794;23.594;2022-11-15T07:21:08;22.20;59.50
42949;DHT22;28587;46.794;23.594;2022-11-15T07:26:28;22.20;59.80
42949;DHT22;28587;46.794;23.594;2022-11-15T07:31:47;22.20;59.40
42949;DHT22;28587;46.794;23.594;2022-11-15T07:37:07;22.20;59.30
42949;DHT22;28587;46.794;23.594;2022-11-15T07:42:27;22.20;59.20
42949;DHT22;28587;46.794;23.594;2022-11-15T07:48:05;22.20;59.00
42949;DHT22;28587;46.794;23.594;2022-11-15T07:53:25;22.20;59.30
42949;DHT22;28587;46.794;23.594;2022-11-15T07:58:45;22.20;59.50
42949;DHT22;28587;46.794;23.594;2022-11-15T08:04:05;22.20;59.70
42949;DHT22;28587;46.794;23.594;2022-11-15T08:09:25;22.20;59.50
42949;DHT22;28587;46.794;23.594;2022-11-15T08:14:45;22.20;59.40
42949;DHT22;28587;46.794;23.594;2022-11-15T08:20:05;22.20;59.60
42949;DHT22;28587;46.794;23.594;2022-11-15T08:25:25;22.20;59.50
42949;DHT22;28587;46.794;23.594;2022-11-15T08:30:45;22.10;59.50
42949;DHT22;28587;46.794;23.594;2022-11-15T08:36:05;22.10;59.40
42949;DHT22;28587;46.794;23.594;2022-11-15T08:41:31;22.20;59.60
42949;DHT22;28587;46.794;23.594;2022-11-15T08:46:51;22.10;59.50
42949;DHT22;28587;46.794;23.594;2022-11-15T08:52:10;22.10;59.40
42949;DHT22;28587;46.794;23.594;2022-11-15T08:57:29;22.10;59.40
42949;DHT22;28587;46.794;23.594;2022-11-15T09:02:50;22.10;58.80
42949;DHT22;28587;46.794;23.594;2022-11-15T09:08:09;22.10;61.30
42949;DHT22;28587;46.794;23.594;2022-11-15T09:13:28;22.10;60.90
42949;DHT22;28587;46.794;23.594;2022-11-15T09:18:48;22.10;60.30
42949;DHT22;28587;46.794;23.594;2022-11-15T09:24:08;22.10;59.10
42949;DHT22;28587;46.794;23.594;2022-11-15T09:29:27;22.10;58.60
42949;DHT22;28587;46.794;23.594;2022-11-15T09:34:47;22.10;57.90
42949;DHT22;28587;46.794;23.594;2022-11-15T09:40:10;22.10;58.10
42949;DHT22;28587;46.794;23.594;2022-11-15T09:45:39;22.20;58.30
42949;DHT22;28587;46.794;23.594;2022-11-15T09:56:31;22.20;58.20
42949;DHT22;28587;46.794;23.594;2022-11-15T10:02:03;22.20;58.80
42949;DHT22;28587;46.794;23.594;2022-11-15T10:12:27;22.20;58.40
42949;DHT22;28587;46.794;23.594;2022-11-15T10:22:56;22.20;58.60
42949;DHT22;28587;46.794;23.594;2022-11-15T10:33:38;22.20;58.30
42949;DHT22;28587;46.794;23.594;2022-11-15T10:39:03;22.20;58.40
42949;DHT22;28587;46.794;23.594;2022-11-15T10:49:19;22.20;57.90
42949;DHT22;28587;46.794;23.594;2022-11-15T10:54:35;22.20;58.40
42949;DHT22;28587;46.794;23.594;2022-11-15T10:59:37;22.20;58.60
42949;DHT22;28587;46.794;23.594;2022-11-15T11:04:51;22.20;58.20
42949;DHT22;28587;46.794;23.594;2022-11-15T11:10:19;22.20;58.50
42949;DHT22;28587;46.794;23.594;2022-11-15T11:15:22;22.20;58.70
42949;DHT22;28587;46.794;23.594;2022-11-15T11:20:44;22.20;58.20
42949;DHT22;28587;46.794;23.594;2022-11-15T11:25:56;22.20;58.20
42949;DHT22;28587;46.794;23.594;2022-11-15T11:41:55;22.20;57.80
42949;DHT22;28587;46.794;23.594;2022-11-15T11:47:19;22.20;58.20
42949;DHT22;28587;46.794;23.594;2022-11-15T11:58:40;22.20;58.30
42949;DHT22;28587;46.794;23.594;2022-11-15T12:04:01;22.20;58.30
42949;DHT22;28587;46.794;23.594;2022-11-15T12:09:35;22.20;58.40
42949;DHT22;28587;46.794;23.594;2022-11-15T12:15:00;22.20;58.00
42949;DHT22;28587;46.794;23.594;2022-11-15T12:20:22;22.20;58.00
42949;DHT22;28587;46.794;23.594;2022-11-15T12:25:41;22.20;58.00
42949;DHT22;28587;46.794;23.594;2022-11-15T12:30:54;22.20;58.00
42949;DHT22;28587;46.794;23.594;2022-11-15T12:36:04;22.20;58.10
42949;DHT22;28587;46.794;23.594;2022-11-15T12:41:16;22.20;58.00
42949;DHT22;28587;46.794;23.594;2022-11-15T12:56:44;22.20;58.10
42949;DHT22;28587;46.794;23.594;2022-11-15T13:11:50;22.20;58.00
42949;DHT22;28587;46.794;23.594;2022-11-15T13:16:58;22.20;57.90
42949;DHT22;28587;46.794;23.594;2022-11-15T13:21:59;22.20;58.10
42949;DHT22;28587;46.794;23.594;2022-11-15T13:27:19;22.20;58.30
42949;DHT22;28587;46.794;23.594;2022-11-15T13:32:21;22.20;58.30
42949;DHT22;28587;46.794;23.594;2022-11-15T13:42:28;22.20;58.10
42949;DHT22;28587;46.794;23.594;2022-11-15T13:47:30;22.20;58.10
42949;DHT22;28587;46.794;23.594;2022-11-15T13:52:34;22.20;57.90
42949;DHT22;28587;46.794;23.594;2022-11-15T13:57:44;22.20;57.80
42949;DHT22;28587;46.794;23.594;2022-11-15T14:02:46;22.20;58.10
42949;DHT22;28587;46.794;23.594;2022-11-15T14:08:03;22.20;58.00
42949;DHT22;28587;46.794;23.594;2022-11-15T14:13:11;22.20;58.00
42949;DHT22;28587;46.794;23.594;2022-11-15T14:18:42;22.20;57.70
42949;DHT22;28587;46.794;23.594;2022-11-15T14:23:44;22.20;57.90
42949;DHT22;28587;46.794;23.594;2022-11-15T14:28:45;22.20;56.80
42949;DHT22;28587;46.794;23.594;2022-11-15T14:33:46;22.20;56.00
42949;DHT22;28587;46.794;23.594;2022-11-15T14:38:47;22.20;56.40
42949;DHT22;28587;46.794;23.594;2022-11-15T14:43:49;22.20;56.00
42949;DHT22;28587;46.794;23.594;2022-11-15T14:48:50;22.20;56.60
42949;DHT22;28587;46.794;23.594;2022-11-15T14:53:51;22.10;56.80
42949;DHT22;28587;46.794;23.594;2022-11-15T14:58:52;22.20;57.20
42949;DHT22;28587;46.794;23.594;2022-11-15T15:03:55;22.10;57.00
42949;DHT22;28587;46.794;23.594;2022-11-15T15:08:57;22.20;57.20
42949;DHT22;28587;46.794;23.594;2022-11-15T15:13:58;22.20;56.80
42949;DHT22;28587;46.794;23.594;2022-11-15T15:19:01;22.20;57.60
42949;DHT22;28587;46.794;23.594;2022-11-15T15:24:02;22.10;57.80
42949;DHT22;28587;46.794;23.594;2022-11-15T15:29:03;22.20;57.90
42949;DHT22;28587;46.794;23.594;2022-11-15T15:34:04;22.20;57.60
42949;DHT22;28587;46.794;23.594;2022-11-15T15:39:09;22.20;56.80
42949;DHT22;28587;46.794;23.594;2022-11-15T15:44:11;22.20;57.10
42949;DHT22;28587;46.794;23.594;2022-11-15T15:49:12;22.10;58.30
42949;DHT22;28587;46.794;23.594;2022-11-15T15:54:12;22.10;58.40
42949;DHT22;28587;46.794;23.594;2022-11-15T15:59:13;22.10;58.10
42949;DHT22;28587;46.794;23.594;2022-11-15T16:04:14;22.10;58.60
42949;DHT22;28587;46.794;23.594;2022-11-15T16:09:17;22.10;58.70
42949;DHT22;28587;46.794;23.594;2022-11-15T16:14:18;22.10;58.30
42949;DHT22;28587;46.794;23.594;2022-11-15T16:19:19;22.20;57.70
42949;DHT22;28587;46.794;23.594;2022-11-15T16:24:20;22.20;58.20
42949;DHT22;28587;46.794;23.594;2022-11-15T16:29:21;22.20;58.60
42949;DHT22;28587;46.794;23.594;2022-11-15T16:34:22;22.20;58.80
42949;DHT22;28587;46.794;23.594;2022-11-15T16:39:24;22.20;59.20
42949;DHT22;28587;46.794;23.594;2022-11-15T16:44:25;22.50;59.20
42949;DHT22;28587;46.794;23.594;2022-11-15T16:49:26;22.90;58.60
42949;DHT22;28587;46.794;23.594;2022-11-15T16:54:31;23.20;57.80
42949;DHT22;28587;46.794;23.594;2022-11-15T16:59:32;23.60;57.10
42949;DHT22;28587;46.794;23.594;2022-11-15T17:04:33;23.90;56.60
42949;DHT22;28587;46.794;23.594;2022-11-15T17:09:39;24.10;56.70
42949;DHT22;28587;46.794;23.594;2022-11-15T17:14:40;24.20;55.80
42949;DHT22;28587;46.794;23.594;2022-11-15T17:19:41;24.20;55.90
42949;DHT22;28587;46.794;23.594;2022-11-15T17:24:42;24.20;56.30
42949;DHT22;28587;46.794;23.594;2022-11-15T17:29:43;24.00;56.50
42949;DHT22;28587;46.794;23.594;2022-11-15T17:34:44;23.90;56.70
42949;DHT22;28587;46.794;23.594;2022-11-15T17:39:46;23.80;57.00
42949;DHT22;28587;46.794;23.594;2022-11-15T17:44:46;23.60;57.30
42949;DHT22;28587;46.794;23.594;2022-11-15T17:49:48;23.50;57.70
42949;DHT22;28587;46.794;23.594;2022-11-15T17:54:49;23.40;57.90
42949;DHT22;28587;46.794;23.594;2022-11-15T17:59:50;23.30;58.00
42949;DHT22;28587;46.794;23.594;2022-11-15T18:04:51;23.30;58.30
42949;DHT22;28587;46.794;23.594;2022-11-15T18:09:52;23.20;58.40
42949;DHT22;28587;46.794;23.594;2022-11-15T18:14:53;23.10;58.60
42949;DHT22;28587;46.794;23.594;2022-11-15T18:19:54;23.10;59.00
42949;DHT22;28587;46.794;23.594;2022-11-15T18:24:55;23.00;58.90
42949;DHT22;28587;46.794;23.594;2022-11-15T18:29:55;23.00;59.00
42949;DHT22;28587;46.794;23.594;2022-11-15T18:34:57;23.00;59.10
42949;DHT22;28587;46.794;23.594;2022-11-15T18:39:58;23.00;60.00
42949;DHT22;28587;46.794;23.594;2022-11-15T18:44:59;23.10;67.80
42949;DHT22;28587;46.794;23.594;2022-11-15T18:50:01;23.20;72.10
42949;DHT22;28587;46.794;23.594;2022-11-15T18:55:02;23.20;75.10
42949;DHT22;28587;46.794;23.594;2022-11-15T19:00:04;23.30;75.10
42949;DHT22;28587;46.794;23.594;2022-11-15T19:05:05;23.20;68.20
42949;DHT22;28587;46.794;23.594;2022-11-15T19:10:06;23.20;66.70
42949;DHT22;28587;46.794;23.594;2022-11-15T19:15:07;23.10;65.10
42949;DHT22;28587;46.794;23.594;2022-11-15T19:20:09;23.10;64.70
42949;DHT22;28587;46.794;23.594;2022-11-15T19:25:10;23.10;64.50
42949;DHT22;28587;46.794;23.594;2022-11-15T19:30:11;23.00;64.50
42949;DHT22;28587;46.794;23.594;2022-11-15T19:35:12;23.00;64.20
42949;DHT22;28587;46.794;23.594;2022-11-15T19:40:14;23.00;64.40
42949;DHT22;28587;46.794;23.594;2022-11-15T19:45:15;23.00;65.30
42949;DHT22;28587;46.794;23.594;2022-11-15T19:50:16;23.00;64.60
42949;DHT22;28587;46.794;23.594;2022-11-15T19:55:17;23.00;65.10
42949;DHT22;28587;46.794;23.594;2022-11-15T20:00:18;22.90;65.30
42949;DHT22;28587;46.794;23.594;2022-11-15T20:05:19;22.90;64.60
42949;DHT22;28587;46.794;23.594;2022-11-15T20:10:20;22.80;64.40
42949;DHT22;28587;46.794;23.594;2022-11-15T20:15:21;22.80;64.90
42949;DHT22;28587;46.794;23.594;2022-11-15T20:20:22;22.80;64.10
42949;DHT22;28587;46.794;23.594;2022-11-15T20:25:23;22.90;63.80
42949;DHT22;28587;46.794;23.594;2022-11-15T20:30:24;22.90;63.60
42949;DHT22;28587;46.794;23.594;2022-11-15T20:35:25;22.90;63.40
42949;DHT22;28587;46.794;23.594;2022-11-15T20:40:26;22.90;63.30
42949;DHT22;28587;46.794;23.594;2022-11-15T20:45:27;22.90;63.30
42949;DHT22;28587;46.794;23.594;2022-11-15T20:50:28;22.90;63.70
42949;DHT22;28587;46.794;23.594;2022-11-15T20:55:29;22.90;62.90
42949;DHT22;28587;46.794;23.594;2022-11-15T21:00:30;22.90;62.60
42949;DHT22;28587;46.794;23.594;2022-11-15T21:05:37;22.90;62.50
42949;DHT22;28587;46.794;23.594;2022-11-15T21:10:39;22.90;62.40
42949;DHT22;28587;46.794;23.594;2022-11-15T21:15:58;22.90;62.40
42949;DHT22;28587;46.794;23.594;2022-11-15T21:21:06;22.90;62.30
42949;DHT22;28587;46.794;23.594;2022-11-15T21:26:07;22.90;62.10
42949;DHT22;28587;46.794;23.594;2022-11-15T21:31:08;22.90;62.40
42949;DHT22;28587;46.794;23.594;2022-11-15T21:36:09;22.90;62.10
42949;DHT22;28587;46.794;23.594;2022-11-15T21:41:10;22.90;62.50
42949;DHT22;28587;46.794;23.594;2022-11-15T21:46:11;22.90;62.00
42949;DHT22;28587;46.794;23.594;2022-11-15T21:51:12;22.90;62.00
42949;DHT22;28587;46.794;23.594;2022-11-15T21:56:13;22.90;61.90
42949;DHT22;28587;46.794;23.594;2022-11-15T22:01:14;22.90;61.80
42949;DHT22;28587;46.794;23.594;2022-11-15T22:06:34;22.90;61.80
42949;DHT22;28587;46.794;23.594;2022-11-15T22:11:35;22.90;61.70
42949;DHT22;28587;46.794;23.594;2022-11-15T22:16:36;22.90;61.70
42949;DHT22;28587;46.794;23.594;2022-11-15T22:21:37;22.90;61.60
42949;DHT22;28587;46.794;23.594;2022-11-15T22:26:39;22.90;61.90
42949;DHT22;28587;46.794;23.594;2022-11-15T22:31:51;22.90;61.80
42949;DHT22;28587;46.794;23.594;2022-11-15T22:36:57;22.90;61.70
42949;DHT22;28587;46.794;23.594;2022-11-15T22:41:58;22.90;61.40
42949;DHT22;28587;46.794;23.594;2022-11-15T22:46:59;22.80;61.40
42949;DHT22;28587;46.794;23.594;2022-11-15T22:52:00;22.80;61.50
42949;DHT22;28587;46.794;23.594;2022-11-15T22:57:01;22.80;61.40
42949;DHT22;28587;46.794;23.594;2022-11-15T23:02:03;22.80;61.20
42949;DHT22;28587;46.794;23.594;2022-11-15T23:07:05;22.80;61.30
42949;DHT22;28587;46.794;23.594;2022-11-15T23:12:08;22.80;61.40
42949;DHT22;28587;46.794;23.594;2022-11-15T23:17:29;22.80;61.40
42949;DHT22;28587;46.794;23.594;2022-11-15T23:22:31;22.80;61.40
42949;DHT22;28587;46.794;23.594;2022-11-15T23:27:46;22.80;61.40
42949;DHT22;28587;46.794;23.594;2022-11-15T23:32:48;22.70;61.30
42949;DHT22;28587;46.794;23.594;2022-11-15T23:38:07;22.70;61.30
42949;DHT22;28587;46.794;23.594;2022-11-15T23:43:08;22.70;61.40
42949;DHT22;28587;46.794;23.594;2022-11-15T23:48:09;22.70;61.40
42949;DHT22;28587;46.794;23.594;2022-11-15T23:53:10;22.70;61.30
42949;DHT22;28587;46.794;23.594;2022-11-15T23:58:11;22.70;62.00
